Time,TemperatureF,DewpointF,PressureIn,WindDirection,WindDirectionDegrees,WindSpeedMPH,WindSpeedGustMPH,Humidity,HourlyPrecipIn,Conditions,Clouds,dailyrainin,SoftwareType,DateUTC
2013-10-13 00:00:00,59.0,51.0,30.21,ENE,71,8.0,22.0,74,0.00,,,-99.99,,2013-10-13 04:00:00,
2013-10-13 00:43:00,59.0,51.0,30.21,ENE,71,8.0,22.0,74,0.00,,,-99.99,,2013-10-13 04:43:00,
2013-10-13 00:54:00,59.0,51.0,30.21,ENE,71,8.0,22.0,74,0.00,,,-99.99,,2013-10-13 04:54:00,
2013-10-13 01:00:00,58.0,50.0,30.22,ENE,62,15.0,22.0,75,0.00,,,-99.99,,2013-10-13 05:00:00,
2013-10-13 01:43:00,58.0,50.0,30.22,ENE,62,15.0,22.0,75,0.00,,,-99.99,,2013-10-13 05:43:00,
2013-10-13 01:52:00,58.0,50.0,30.22,ENE,62,15.0,22.0,75,0.00,,,-99.99,,2013-10-13 05:52:00,
2013-10-13 02:00:00,58.0,50.0,30.22,East,83,1.0,23.0,76,0.00,,,-99.99,,2013-10-13 06:00:00,
2013-10-13 02:42:00,58.0,50.0,30.22,East,83,1.0,23.0,76,0.00,,,-99.99,,2013-10-13 06:42:00,
2013-10-13 02:52:00,58.0,50.0,30.22,East,83,1.0,23.0,76,0.00,,,-99.99,,2013-10-13 06:52:00,
2013-10-13 03:00:00,57.0,50.0,30.22,East,82,1.0,22.0,77,0.00,,,-99.99,,2013-10-13 07:00:00,
2013-10-13 03:42:00,57.0,50.0,30.22,East,82,1.0,22.0,77,0.00,,,-99.99,,2013-10-13 07:42:00,
2013-10-13 03:52:00,57.0,50.0,30.22,East,82,1.0,22.0,77,0.00,,,-99.99,,2013-10-13 07:52:00,
2013-10-13 04:00:00,55.0,48.0,30.21,ENE,72,13.0,23.0,78,0.00,,,-99.99,,2013-10-13 08:00:00,
2013-10-13 04:42:00,55.0,48.0,30.21,ENE,72,13.0,23.0,78,0.00,,,-99.99,,2013-10-13 08:42:00,
2013-10-13 04:52:00,55.0,48.0,30.21,ENE,72,13.0,23.0,78,0.00,,,-99.99,,2013-10-13 08:52:00,
2013-10-13 05:00:00,54.0,48.0,30.22,NE,54,13.0,23.0,78,0.00,,,-99.99,,2013-10-13 09:00:00,
2013-10-13 05:43:00,54.0,48.0,30.22,NE,54,13.0,23.0,78,0.00,,,-99.99,,2013-10-13 09:43:00,
2013-10-13 05:53:00,54.0,48.0,30.22,NE,54,13.0,23.0,78,0.00,,,-99.99,,2013-10-13 09:53:00,
2013-10-13 06:00:00,53.0,47.0,30.25,ENE,69,8.0,22.0,80,0.00,,,-99.99,,2013-10-13 10:00:00,
2013-10-13 06:43:00,53.0,47.0,30.25,ENE,69,8.0,22.0,80,0.00,,,-99.99,,2013-10-13 10:43:00,
2013-10-13 06:53:00,53.0,47.0,30.25,ENE,69,8.0,22.0,80,0.00,,,-99.99,,2013-10-13 10:53:00,
2013-10-13 07:00:00,53.0,47.0,30.27,East,88,10.0,20.0,81,0.00,,,-99.99,,2013-10-13 11:00:00,
2013-10-13 07:42:00,53.0,47.0,30.27,East,88,10.0,20.0,81,0.00,,,-99.99,,2013-10-13 11:42:00,
2013-10-13 07:52:00,53.0,47.0,30.27,East,88,10.0,20.0,81,0.00,,,-99.99,,2013-10-13 11:52:00,
2013-10-13 08:00:00,52.0,47.0,30.29,ENE,67,11.0,21.0,82,0.00,,,-99.99,,2013-10-13 12:00:00,
2013-10-13 08:42:00,52.0,47.0,30.29,ENE,67,11.0,21.0,82,0.00,,,-99.99,,2013-10-13 12:42:00,
2013-10-13 08:52:00,52.0,47.0,30.29,ENE,67,11.0,21.0,82,0.00,,,-99.99,,2013-10-13 12:52:00,
2013-10-13 09:00:00,54.0,47.0,30.30,East,81,18.0,23.0,78,0.00,,,-99.99,,2013-10-13 13:00:00,
2013-10-13 09:42:00,54.0,47.0,30.30,East,81,18.0,23.0,78,0.00,,,-99.99,,2013-10-13 13:42:00,
2013-10-13 09:52:00,54.0,47.0,30.30,East,81,18.0,23.0,78,0.00,,,-99.99,,2013-10-13 13:52:00,
2013-10-13 10:00:00,56.0,48.0,30.32,NE,37,9.0,19.0,76,0.00,,,-99.99,,2013-10-13 14:00:00,
2013-10-13 10:42:00,56.0,48.0,30.32,NE,37,9.0,19.0,76,0.00,,,-99.99,,2013-10-13 14:42:00,
2013-10-13 10:52:00,56.0,48.0,30.32,NE,37,9.0,19.0,76,0.00,,,-99.99,,2013-10-13 14:52:00,
2013-10-13 11:00:00,57.0,48.0,30.32,NE,46,8.0,18.0,72,0.00,,,-99.99,,2013-10-13 15:00:00,
2013-10-13 11:43:00,57.0,48.0,30.32,NE,46,8.0,18.0,72,0.00,,,-99.99,,2013-10-13 15:43:00,
2013-10-13 11:54:00,57.0,48.0,30.32,NE,46,8.0,18.0,72,0.00,,,-99.99,,2013-10-13 15:54:00,
2013-10-13 12:00:00,59.0,48.0,30.33,ENE,66,4.0,19.0,68,0.00,,,-99.99,,2013-10-13 16:00:00,
2013-10-13 12:43:00,59.0,48.0,30.33,ENE,66,4.0,19.0,68,0.00,,,-99.99,,2013-10-13 16:43:00,
2013-10-13 12:54:00,59.0,48.0,30.33,ENE,66,4.0,19.0,68,0.00,,,-99.99,,2013-10-13 16:54:00,
2013-10-13 13:00:00,61.0,49.0,30.31,ESE,119,4.0,19.0,66,0.00,,,-99.99,,2013-10-13 17:00:00,
2013-10-13 13:43:00,61.0,49.0,30.31,ESE,119,4.0,19.0,66,0.00,,,-99.99,,2013-10-13 17:43:00,
2013-10-13 13:53:00,61.0,49.0,30.31,ESE,119,4.0,19.0,66,0.00,,,-99.99,,2013-10-13 17:53:00,
2013-10-13 14:00:00,62.0,48.0,30.30,East,90,9.0,-999.0,59,-99.99,,,-99.99,,2013-10-13 18:00:00,
2013-10-13 14:42:00,62.0,48.0,30.30,East,90,9.0,-999.0,59,-99.99,,,-99.99,,2013-10-13 18:42:00,
2013-10-13 14:52:00,62.0,48.0,30.30,East,90,9.0,-999.0,59,-99.99,,,-99.99,,2013-10-13 18:52:00,
2013-10-13 15:00:00,63.0,48.0,30.29,East,82,10.0,21.0,58,0.00,,,-99.99,,2013-10-13 19:00:00,
2013-10-13 15:42:00,63.0,48.0,30.29,East,82,10.0,21.0,58,0.00,,,-99.99,,2013-10-13 19:42:00,
2013-10-13 15:53:00,63.0,48.0,30.29,East,82,10.0,21.0,58,0.00,,,-99.99,,2013-10-13 19:53:00,
2013-10-13 16:00:00,64.0,48.0,30.27,ESE,117,4.0,21.0,58,0.00,,,-99.99,,2013-10-13 20:00:00,
2013-10-13 16:43:00,64.0,48.0,30.27,ESE,117,4.0,21.0,58,0.00,,,-99.99,,2013-10-13 20:43:00,
2013-10-13 16:52:00,64.0,48.0,30.27,ESE,117,4.0,21.0,58,0.00,,,-99.99,,2013-10-13 20:52:00,
2013-10-13 17:00:00,62.0,49.0,30.28,ESE,114,10.0,20.0,63,0.00,,,-99.99,,2013-10-13 21:00:00,
2013-10-13 17:44:00,62.0,49.0,30.28,ESE,114,10.0,20.0,63,0.00,,,-99.99,,2013-10-13 21:44:00,
2013-10-13 17:55:00,62.0,49.0,30.28,ESE,114,10.0,20.0,63,0.00,,,-99.99,,2013-10-13 21:55:00,
2013-10-13 18:00:00,58.0,50.0,30.29,ESE,122,4.0,14.0,74,0.00,,,-99.99,,2013-10-13 22:00:00,
2013-10-13 18:43:00,58.0,50.0,30.29,ESE,122,4.0,14.0,74,0.00,,,-99.99,,2013-10-13 22:43:00,
2013-10-13 18:53:00,58.0,50.0,30.29,ESE,122,4.0,14.0,74,0.00,,,-99.99,,2013-10-13 22:53:00,
2013-10-13 20:00:00,53.0,49.0,30.30,ESE,105,6.0,-999.0,84,-99.99,,,-99.99,,2013-10-14 00:00:00,
2013-10-13 20:42:00,53.0,49.0,30.30,ESE,105,6.0,-999.0,84,-99.99,,,-99.99,,2013-10-14 00:42:00,
2013-10-13 20:52:00,53.0,49.0,30.30,ESE,105,6.0,-999.0,84,-99.99,,,-99.99,,2013-10-14 00:52:00,
2013-10-13 21:00:00,53.0,49.0,30.31,SE,130,0.0,8.0,86,0.00,,,-99.99,,2013-10-14 01:00:00,
2013-10-13 21:42:00,53.0,49.0,30.31,SE,130,0.0,8.0,86,0.00,,,-99.99,,2013-10-14 01:42:00,
2013-10-13 21:52:00,53.0,49.0,30.31,SE,130,0.0,8.0,86,0.00,,,-99.99,,2013-10-14 01:52:00,
2013-10-13 22:00:00,53.0,49.0,30.32,East,92,0.0,7.0,86,0.00,,,-99.99,,2013-10-14 02:00:00,
2013-10-13 22:42:00,53.0,49.0,30.32,East,92,0.0,7.0,86,0.00,,,-99.99,,2013-10-14 02:42:00,
2013-10-13 22:52:00,53.0,49.0,30.32,East,92,0.0,7.0,86,0.00,,,-99.99,,2013-10-14 02:52:00,
2013-10-13 23:00:00,52.0,49.0,30.32,East,92,0.0,0.0,92,0.00,,,-99.99,,2013-10-14 03:00:00,
2013-10-13 23:44:00,52.0,49.0,30.32,East,92,0.0,0.0,92,0.00,,,-99.99,,2013-10-14 03:44:00,
2013-10-13 23:55:00,52.0,49.0,30.32,East,92,0.0,0.0,92,0.00,,,-99.99,,2013-10-14 03:55:00,